createdAt,value
2018-10-07T00:01:41.160Z,100275.30
2018-10-07T00:04:09.410Z,100275.40
2018-10-07T00:06:37.620Z,100283.20
2018-10-07T00:09:07.087Z,100284.16
2018-10-07T00:11:35.627Z,100285.81
2018-10-07T00:14:03.976Z,100289.23
2018-10-07T00:16:32.297Z,100289.42
2018-10-07T00:19:00.541Z,100291.31
2018-10-07T00:21:28.737Z,100288.09
2018-10-07T00:23:56.946Z,100287.17
2018-10-07T00:26:25.219Z,100299.42
2018-10-07T00:28:53.469Z,100305.04
2018-10-07T00:31:21.745Z,100309.66
2018-10-07T00:33:49.973Z,100316.83
2018-10-07T00:36:18.228Z,100328.33
2018-10-07T00:38:46.422Z,100343.09
2018-10-07T00:41:14.692Z,100411.56
2018-10-07T00:43:42.969Z,100410.28
2018-10-07T00:46:11.242Z,100391.08
2018-10-07T00:48:39.445Z,100414.95
2018-10-07T00:51:07.662Z,100412.66
2018-10-07T00:53:36.146Z,100415.16
2018-10-07T00:56:04.392Z,100409.56
2018-10-07T00:58:33.262Z,100425.31
2018-10-07T01:01:01.497Z,100433.41
2018-10-07T01:03:29.722Z,100431.66
2018-10-07T01:05:57.980Z,100433.00
2018-10-07T01:08:26.237Z,100427.94
2018-10-07T01:10:54.473Z,100419.98
2018-10-07T01:13:22.723Z,100421.66
2018-10-07T01:15:50.975Z,100430.76
2018-10-07T01:18:19.221Z,100420.84
2018-10-07T01:20:47.478Z,100426.16
2018-10-07T01:23:15.706Z,100424.94
2018-10-07T01:25:43.932Z,100430.17
2018-10-07T01:28:12.181Z,100442.67
2018-10-07T01:30:40.447Z,100445.12
2018-10-07T01:33:08.635Z,100446.59
2018-10-07T01:35:36.864Z,100455.59
2018-10-07T01:38:05.106Z,100472.61
2018-10-07T01:40:33.329Z,100488.82
2018-10-07T01:43:01.534Z,100490.34
2018-10-07T01:45:29.755Z,100503.39
2018-10-07T01:47:57.991Z,100502.00
2018-10-07T01:50:26.212Z,100497.63
2018-10-07T01:52:54.458Z,100497.72
2018-10-07T01:55:22.650Z,100466.03
2018-10-07T01:57:50.852Z,100456.20
2018-10-07T02:00:19.086Z,100447.52
2018-10-07T02:02:47.330Z,100454.80
2018-10-07T02:05:15.642Z,100452.34
2018-10-07T02:07:43.966Z,100462.66
2018-10-07T02:10:12.220Z,100461.84
2018-10-07T02:12:40.446Z,100456.05
2018-10-07T02:15:08.742Z,100455.49
2018-10-07T02:17:36.971Z,100453.59
2018-10-07T02:20:05.211Z,100450.78
2018-10-07T02:22:33.466Z,100453.55
2018-10-07T02:25:01.726Z,100446.22
2018-10-07T02:27:30.053Z,100452.35
2018-10-07T02:29:58.262Z,100461.69
2018-10-07T02:32:26.482Z,100462.91
2018-10-07T02:34:54.726Z,100456.98
2018-10-07T02:37:22.990Z,100455.21
2018-10-07T02:39:51.206Z,100461.93
2018-10-07T02:42:19.466Z,100451.46
2018-10-07T02:44:47.687Z,100444.79
2018-10-07T02:47:15.915Z,100451.91
2018-10-07T02:49:44.127Z,100447.41
2018-10-07T02:52:12.482Z,100443.63
2018-10-07T02:54:40.743Z,100455.13
2018-10-07T02:57:09.014Z,100456.38
2018-10-07T02:59:37.298Z,100460.03
2018-10-07T03:02:05.546Z,100462.46
2018-10-07T03:04:33.843Z,100454.61
2018-10-07T03:07:02.164Z,100459.24
2018-10-07T03:09:30.389Z,100455.91
2018-10-07T03:11:58.609Z,100450.45
2018-10-07T03:14:26.834Z,100446.84
2018-10-07T03:16:55.041Z,100453.22
2018-10-07T03:19:23.236Z,100458.45
2018-10-07T03:21:51.434Z,100451.81
2018-10-07T03:24:19.649Z,100454.42
2018-10-07T03:26:47.858Z,100461.78
2018-10-07T03:29:16.154Z,100469.27
2018-10-07T03:31:44.369Z,100492.46
2018-10-07T03:34:12.596Z,100500.56
2018-10-07T03:36:40.827Z,100502.91
2018-10-07T03:39:09.440Z,100505.45
2018-10-07T03:41:37.738Z,100502.50
2018-10-07T03:44:05.972Z,100497.47
2018-10-07T03:46:34.204Z,100497.66
2018-10-07T03:49:02.529Z,100511.30
2018-10-07T03:51:30.734Z,100510.89
2018-10-07T03:53:58.949Z,100497.30
2018-10-07T03:56:27.158Z,100487.70
2018-10-07T03:58:55.381Z,100491.47
2018-10-07T04:01:23.599Z,100501.87
2018-10-07T04:03:51.857Z,100517.11
2018-10-07T04:06:20.074Z,100518.44
2018-10-07T04:08:48.289Z,100527.84
2018-10-07T04:11:16.491Z,100533.78
2018-10-07T04:13:44.685Z,100543.64
2018-10-07T04:16:12.917Z,100547.88
2018-10-07T04:18:41.170Z,100555.55
2018-10-07T04:21:09.400Z,100572.91
2018-10-07T04:23:37.604Z,100582.94
2018-10-07T04:26:05.829Z,100586.57
2018-10-07T04:28:34.073Z,100579.23
2018-10-07T04:31:02.282Z,100582.53
2018-10-07T04:33:30.493Z,100580.88
2018-10-07T04:35:58.705Z,100586.23
2018-10-07T04:38:26.917Z,100598.00
2018-10-07T04:40:55.129Z,100599.86
2018-10-07T04:43:23.362Z,100607.64
2018-10-07T04:45:51.594Z,100615.88
2018-10-07T04:48:19.785Z,100621.77
2018-10-07T04:50:48.022Z,100630.86
2018-10-07T04:53:16.249Z,100631.28
2018-10-07T04:55:44.462Z,100631.88
2018-10-07T04:58:12.664Z,100640.61
2018-10-07T05:00:40.898Z,100644.76
2018-10-07T05:03:09.137Z,100635.81
2018-10-07T05:05:37.480Z,100653.62
2018-10-07T05:08:06.174Z,100663.08
2018-10-07T05:10:54.152Z,100670.75
2018-10-07T05:13:24.330Z,100664.56
2018-10-07T05:15:55.645Z,100678.27
2018-10-07T05:18:24.341Z,100684.75
2018-10-07T05:20:52.850Z,100691.33
2018-10-07T05:23:21.304Z,100695.09
2018-10-07T05:25:49.546Z,100693.72
2018-10-07T05:28:18.296Z,100702.24
2018-10-07T05:30:46.561Z,100709.05
2018-10-07T05:33:14.923Z,100720.95
2018-10-07T05:35:43.272Z,100726.61
2018-10-07T05:38:11.477Z,100734.45
2018-10-07T05:40:39.697Z,100727.47
2018-10-07T05:43:07.936Z,100730.84
2018-10-07T05:45:36.139Z,100732.96
2018-10-07T05:48:04.361Z,100747.15
2018-10-07T05:50:32.617Z,100753.41
2018-10-07T05:53:00.850Z,100759.02
2018-10-07T05:55:29.065Z,100759.30
2018-10-07T05:57:59.498Z,100758.64
2018-10-07T06:00:28.729Z,100757.83
2018-10-07T06:03:07.339Z,100749.73
2018-10-07T06:05:36.770Z,100754.19
2018-10-07T06:08:05.011Z,100760.95
2018-10-07T06:10:33.258Z,100763.33
2018-10-07T06:13:01.504Z,100760.80
2018-10-07T06:15:45.564Z,100767.55
2018-10-07T06:18:13.970Z,100771.13
2018-10-07T06:20:42.285Z,100782.61
2018-10-07T06:23:10.750Z,100788.59
2018-10-07T06:25:39.021Z,100790.34
2018-10-07T06:28:08.781Z,100788.21
2018-10-07T06:30:37.513Z,100795.86
2018-10-07T06:33:05.769Z,100803.30
2018-10-07T06:35:34.081Z,100796.82
2018-10-07T06:38:02.338Z,100806.78
2018-10-07T06:40:30.616Z,100810.48
2018-10-07T06:42:58.874Z,100820.88
2018-10-07T06:45:27.152Z,100825.86
2018-10-07T06:47:55.368Z,100822.42
2018-10-07T06:50:23.612Z,100821.28
2018-10-07T06:52:51.978Z,100822.59
2018-10-07T06:55:20.208Z,100829.56
2018-10-07T06:57:48.503Z,100832.72
2018-10-07T07:00:16.702Z,100831.03
2018-10-07T07:02:44.962Z,100831.41
2018-10-07T07:05:13.164Z,100844.98
2018-10-07T07:07:41.385Z,100845.04
2018-10-07T07:10:09.654Z,100846.59
2018-10-07T07:12:37.942Z,100857.05
2018-10-07T07:15:06.202Z,100866.11
2018-10-07T07:17:34.406Z,100881.98
2018-10-07T07:20:02.686Z,100887.98
2018-10-07T07:22:30.868Z,100892.47
2018-10-07T07:24:59.158Z,100893.45
2018-10-07T07:27:27.462Z,100893.92
2018-10-07T07:29:55.770Z,100900.05
2018-10-07T07:32:24.045Z,100903.98
2018-10-07T07:34:52.365Z,100910.59
2018-10-07T07:37:21.638Z,100920.22
2018-10-07T07:39:49.846Z,100928.57
2018-10-07T07:42:18.142Z,100939.45
2018-10-07T07:44:46.301Z,100957.27
2018-10-07T07:47:14.540Z,100963.23
2018-10-07T07:49:42.763Z,100971.38
2018-10-07T07:52:10.985Z,100977.04
2018-10-07T07:54:40.279Z,100987.12
2018-10-07T07:57:08.531Z,100986.75
2018-10-07T07:59:36.753Z,101004.95
2018-10-07T08:02:05.010Z,101019.81
2018-10-07T08:04:33.229Z,101016.73
2018-10-07T08:07:01.477Z,101024.57
2018-10-07T08:09:29.739Z,101029.79
2018-10-07T08:11:58.014Z,101028.75
2018-10-07T08:14:26.235Z,101033.12
2018-10-07T08:16:54.456Z,101038.75
2018-10-07T08:19:22.657Z,101042.25
2018-10-07T08:21:50.865Z,101050.92
2018-10-07T08:24:20.246Z,101054.58
2018-10-07T08:26:48.453Z,101063.16
2018-10-07T08:29:16.745Z,101078.48
2018-10-07T08:31:44.977Z,101087.70
2018-10-07T08:34:13.346Z,101085.84
2018-10-07T08:36:41.634Z,101088.45
2018-10-07T08:39:10.301Z,101093.75
2018-10-07T08:41:38.729Z,101104.98
2018-10-07T08:44:07.221Z,101105.09
2018-10-07T08:46:36.509Z,101108.23
2018-10-07T08:49:04.728Z,101110.33
2018-10-07T08:51:32.946Z,101099.93
2018-10-07T08:54:01.189Z,101104.67
2018-10-07T08:56:29.730Z,101105.55
2018-10-07T08:58:57.881Z,101099.95
2018-10-07T09:01:26.114Z,101104.33
2018-10-07T09:03:54.328Z,101101.75
2018-10-07T09:06:22.529Z,101103.52
2018-10-07T09:08:50.776Z,101106.97
2018-10-07T09:11:18.966Z,101108.68
2018-10-07T09:13:48.267Z,101118.72
2018-10-07T09:16:16.486Z,101119.14
2018-10-07T09:18:44.698Z,101119.53
2018-10-07T09:21:12.949Z,101111.28
2018-10-07T09:23:41.186Z,101113.92
2018-10-07T09:26:09.405Z,101110.86
2018-10-07T09:28:37.701Z,101106.03
2018-10-07T09:31:06.108Z,101113.84
2018-10-07T09:33:34.300Z,101110.33
2018-10-07T09:36:02.502Z,101116.00
2018-10-07T09:38:30.750Z,101112.47
2018-10-07T09:40:59.056Z,101109.48
2018-10-07T09:43:27.269Z,101118.13
2018-10-07T09:45:55.568Z,101112.45
2018-10-07T09:48:23.857Z,101119.73
2018-10-07T09:50:52.105Z,101114.97
2018-10-07T09:53:20.338Z,101126.28
2018-10-07T09:55:48.585Z,101126.20
2018-10-07T09:58:16.783Z,101123.14
2018-10-07T10:00:45.001Z,101130.47
2018-10-07T10:03:13.200Z,101133.06
2018-10-07T10:05:41.463Z,101142.52
2018-10-07T10:08:10.325Z,101144.72
2018-10-07T10:10:38.598Z,101145.63
2018-10-07T10:13:06.925Z,101146.08
2018-10-07T10:15:35.158Z,101143.49
2018-10-07T10:18:06.360Z,101140.78
2018-10-07T10:20:48.529Z,101145.16
2018-10-07T10:23:30.002Z,101131.48
2018-10-07T10:26:10.607Z,101131.08
2018-10-07T10:28:46.938Z,101136.22
2018-10-07T10:31:20.795Z,101138.95
2018-10-07T10:34:09.969Z,101153.14
2018-10-07T10:36:49.303Z,101155.69
2018-10-07T10:40:24.750Z,101163.62
2018-10-07T10:43:07.838Z,101165.14
2018-10-07T10:45:40.119Z,101166.23
2018-10-07T10:48:15.556Z,101176.63
2018-10-07T10:50:52.754Z,101171.53
2018-10-07T10:53:25.058Z,101164.62
2018-10-07T10:56:05.243Z,101167.31
2018-10-07T11:00:54.999Z,101182.13
2018-10-07T11:03:31.109Z,101169.61
2018-10-07T11:06:07.226Z,101162.02
2018-10-07T11:08:45.809Z,101168.45
2018-10-07T11:11:22.081Z,101165.91
2018-10-07T11:13:57.321Z,101170.27
2018-10-07T11:16:43.787Z,101167.97
2018-10-07T11:19:32.697Z,101177.98
2018-10-07T11:22:34.561Z,101181.48
2018-10-07T11:26:16.931Z,101181.47
2018-10-07T11:30:21.036Z,101184.53
2018-10-07T11:32:58.625Z,101179.77
2018-10-07T11:38:12.942Z,101183.26
2018-10-07T11:40:49.701Z,101188.67
2018-10-07T11:44:34.663Z,101186.46
2018-10-07T11:47:16.842Z,101189.32
2018-10-07T11:49:53.321Z,101193.52
2018-10-07T11:54:01.790Z,101193.87
2018-10-07T11:56:30.049Z,101197.32
2018-10-07T11:58:58.273Z,101201.23
2018-10-07T12:01:27.558Z,101205.97
2018-10-07T12:03:56.030Z,101201.42
2018-10-07T12:06:24.617Z,101200.65
2018-10-07T12:08:52.854Z,101201.98
2018-10-07T12:11:21.073Z,101205.88
2018-10-07T12:13:49.310Z,101213.31
2018-10-07T12:16:17.599Z,101219.41
2018-10-07T12:18:45.977Z,101212.34
2018-10-07T12:21:14.218Z,101223.34
2018-10-07T12:23:42.449Z,101223.89
2018-10-07T12:26:10.698Z,101227.28
2018-10-07T12:28:40.021Z,101225.05
2018-10-07T12:31:08.530Z,101222.34
2018-10-07T12:33:36.761Z,101225.36
2018-10-07T12:36:05.354Z,101232.80
2018-10-07T12:38:33.641Z,101233.82
2018-10-07T12:41:01.888Z,101245.58
2018-10-07T12:43:30.108Z,101253.77
2018-10-07T12:45:58.317Z,101252.03
2018-10-07T12:48:26.539Z,101249.45
2018-10-07T12:50:54.768Z,101248.16
2018-10-07T12:53:23.012Z,101251.22
2018-10-07T12:55:51.258Z,101248.55
2018-10-07T12:58:19.494Z,101253.25
2018-10-07T13:00:47.702Z,101250.16
2018-10-07T13:03:16.965Z,101240.48
2018-10-07T13:05:45.217Z,101244.80
2018-10-07T13:08:13.519Z,101250.03
2018-10-07T13:10:41.811Z,101254.66
2018-10-07T13:13:10.066Z,101256.44
2018-10-07T13:15:38.476Z,101256.69
2018-10-07T13:18:06.764Z,101255.89
2018-10-07T13:20:35.039Z,101247.34
2018-10-07T13:23:03.358Z,101251.16
2018-10-07T13:25:31.565Z,101256.28
2018-10-07T13:27:59.781Z,101251.45
2018-10-07T13:30:28.026Z,101251.83
2018-10-07T13:32:56.334Z,101244.19
2018-10-07T13:35:24.631Z,101243.66
2018-10-07T13:37:52.896Z,101239.47
2018-10-07T13:40:21.174Z,101238.31
2018-10-07T13:42:49.441Z,101232.16
2018-10-07T13:45:17.802Z,101233.84
2018-10-07T13:47:46.237Z,101221.47
2018-10-07T13:50:16.489Z,101218.44
2018-10-07T13:52:44.755Z,101230.41
2018-10-07T13:55:13.034Z,101215.56
2018-10-07T13:57:41.254Z,101224.05
2018-10-07T14:00:09.456Z,101225.45
2018-10-07T14:02:37.818Z,101235.86
2018-10-07T14:05:06.013Z,101234.44
2018-10-07T14:07:34.353Z,101235.75
2018-10-07T14:10:02.555Z,101240.34
2018-10-07T14:12:30.793Z,101238.50
2018-10-07T14:14:59.041Z,101233.94
2018-10-07T14:17:27.253Z,101232.27
2018-10-07T14:19:55.543Z,101241.38
2018-10-07T14:22:23.754Z,101236.84
2018-10-07T14:24:51.981Z,101236.19
2018-10-07T14:27:20.193Z,101236.80
2018-10-07T14:29:48.502Z,101225.27
2018-10-07T14:32:16.827Z,101228.33
2018-10-07T14:34:45.054Z,101231.66
2018-10-07T14:37:13.325Z,101240.08
2018-10-07T14:39:41.629Z,101233.30
2018-10-07T14:42:09.971Z,101230.74
2018-10-07T14:44:39.237Z,101223.80
2018-10-07T14:47:07.461Z,101227.36
2018-10-07T14:49:35.706Z,101229.37
2018-10-07T14:52:05.145Z,101227.84
2018-10-07T14:54:33.497Z,101233.26
2018-10-07T14:57:02.759Z,101225.64
2018-10-07T14:59:31.052Z,101231.05
2018-10-07T15:02:02.706Z,101230.02
2018-10-07T15:04:30.967Z,101235.97
2018-10-07T15:06:59.153Z,101233.19
2018-10-07T15:09:27.385Z,101236.70
2018-10-07T15:11:55.682Z,101242.20
2018-10-07T15:14:23.929Z,101238.88
2018-10-07T15:16:52.130Z,101239.03
2018-10-07T15:19:20.357Z,101231.45
2018-10-07T15:21:48.606Z,101234.66
2018-10-07T15:24:16.791Z,101229.31
2018-10-07T15:26:45.019Z,101229.58
2018-10-07T15:29:13.279Z,101238.83
2018-10-07T15:31:41.421Z,101237.82
2018-10-07T15:34:09.631Z,101242.38
2018-10-07T15:36:37.882Z,101244.50
2018-10-07T15:39:07.024Z,101241.48
2018-10-07T15:41:35.282Z,101239.19
2018-10-07T15:44:03.512Z,101240.45
2018-10-07T15:46:31.837Z,101242.27
2018-10-07T15:49:00.094Z,101246.90
2018-10-07T15:51:28.290Z,101252.52
2018-10-07T15:53:56.533Z,101257.17
2018-10-07T15:56:24.769Z,101258.08
2018-10-07T15:58:53.067Z,101262.84
2018-10-07T16:01:21.321Z,101265.97
2018-10-07T16:03:49.530Z,101258.59
2018-10-07T16:06:18.894Z,101262.95
2018-10-07T16:08:47.179Z,101263.83
2018-10-07T16:11:15.345Z,101256.41
2018-10-07T16:13:43.574Z,101273.92
2018-10-07T16:16:11.895Z,101275.57
2018-10-07T16:18:40.163Z,101286.20
2018-10-07T16:21:08.337Z,101293.25
2018-10-07T16:23:36.582Z,101288.53
2018-10-07T16:26:04.847Z,101289.21
2018-10-07T16:28:33.000Z,101290.48
2018-10-07T16:31:01.303Z,101293.67
2018-10-07T16:33:29.637Z,101302.50
2018-10-07T16:35:57.872Z,101301.81
2018-10-07T16:38:26.321Z,101307.66
2018-10-07T16:40:54.541Z,101300.98
2018-10-07T16:43:22.760Z,101312.94
2018-10-07T16:45:51.022Z,101312.17
2018-10-07T16:48:19.358Z,101304.72
2018-10-07T16:50:47.622Z,101315.98
2018-10-07T16:53:15.943Z,101317.77
2018-10-07T16:55:44.229Z,101325.75
2018-10-07T16:58:12.438Z,101328.33
2018-10-07T17:00:40.679Z,101329.12
2018-10-07T17:03:09.045Z,101330.91
2018-10-07T17:05:37.260Z,101329.20
2018-10-07T17:08:05.558Z,101327.60
2018-10-07T17:10:33.786Z,101329.78
2018-10-07T17:13:02.201Z,101341.16
2018-10-07T17:15:30.571Z,101348.20
2018-10-07T17:17:58.811Z,101345.72
2018-10-07T17:20:27.166Z,101348.81
2018-10-07T17:22:55.511Z,101353.72
2018-10-07T17:25:23.730Z,101353.94
2018-10-07T17:27:52.003Z,101359.03
2018-10-07T17:30:20.285Z,101360.02
2018-10-07T17:32:49.668Z,101359.17
2018-10-07T17:35:18.231Z,101357.38
2018-10-07T17:37:46.553Z,101360.94
2018-10-07T17:40:14.814Z,101370.20
2018-10-07T17:42:43.882Z,101372.41
2018-10-07T17:45:12.294Z,101369.85
2018-10-07T17:47:40.959Z,101365.05
2018-10-07T17:50:09.231Z,101374.30
2018-10-07T17:52:37.917Z,101369.45
2018-10-07T17:55:06.250Z,101382.03
2018-10-07T17:57:34.861Z,101387.41
2018-10-07T18:00:04.329Z,101389.02
2018-10-07T18:02:32.869Z,101389.92
2018-10-07T18:05:01.720Z,101396.93
2018-10-07T18:07:30.398Z,101402.16
2018-10-07T18:09:59.317Z,101406.13
2018-10-07T18:12:28.245Z,101401.78
2018-10-07T18:14:56.621Z,101400.55
2018-10-07T18:17:26.410Z,101403.61
2018-10-07T18:19:54.904Z,101406.61
2018-10-07T18:22:23.263Z,101402.33
2018-10-07T18:24:51.652Z,101404.53
2018-10-07T18:27:19.829Z,101404.09
2018-10-07T18:29:49.179Z,101405.80
2018-10-07T18:32:17.390Z,101412.83
2018-10-07T18:34:46.352Z,101410.17
2018-10-07T18:37:14.509Z,101413.67
2018-10-07T18:39:42.721Z,101411.06
2018-10-07T18:42:10.998Z,101417.61
2018-10-07T18:44:40.463Z,101421.06
2018-10-07T18:47:08.691Z,101428.45
2018-10-07T18:49:37.121Z,101435.87
2018-10-07T18:52:06.492Z,101431.94
2018-10-07T18:54:34.726Z,101424.97
2018-10-07T18:57:02.941Z,101428.00
2018-10-07T18:59:31.245Z,101440.20
2018-10-07T19:02:00.577Z,101437.14
2018-10-07T19:04:28.794Z,101435.42
2018-10-07T19:06:57.005Z,101431.52
2018-10-07T19:09:26.272Z,101437.58
2018-10-07T19:11:54.467Z,101446.73
2018-10-07T19:14:22.746Z,101442.81
2018-10-07T19:16:50.934Z,101449.33
2018-10-07T19:19:19.454Z,101451.94
2018-10-07T19:21:47.742Z,101459.75
2018-10-07T19:24:15.962Z,101451.92
2018-10-07T19:26:44.174Z,101461.81
2018-10-07T19:29:12.377Z,101470.99
2018-10-07T19:31:40.617Z,101468.44
2018-10-07T19:34:08.943Z,101462.35
2018-10-07T19:36:37.229Z,101466.67
2018-10-07T19:39:08.035Z,101473.19
2018-10-07T19:41:36.320Z,101473.13
2018-10-07T19:44:04.729Z,101478.72
2018-10-07T19:46:33.505Z,101480.90
2018-10-07T19:49:02.520Z,101479.53
2018-10-07T19:51:31.029Z,101485.66
2018-10-07T19:53:59.663Z,101487.81
2018-10-07T19:56:28.065Z,101487.77
2018-10-07T19:58:56.806Z,101494.30
2018-10-07T20:01:25.501Z,101489.94
2018-10-07T20:03:54.177Z,101487.82
2018-10-07T20:06:22.722Z,101486.97
2018-10-07T20:08:51.350Z,101491.68
2018-10-07T20:11:19.978Z,101489.53
2018-10-07T20:13:48.506Z,101492.50
2018-10-07T20:16:17.056Z,101489.83
2018-10-07T20:18:45.756Z,101484.64
2018-10-07T20:21:14.359Z,101479.80
2018-10-07T20:23:43.146Z,101491.47
2018-10-07T20:26:11.563Z,101489.03
2018-10-07T20:28:39.821Z,101488.97
2018-10-07T20:31:08.372Z,101498.50
2018-10-07T20:33:36.613Z,101491.59
2018-10-07T20:36:05.218Z,101488.06
2018-10-07T20:38:33.991Z,101493.19
2018-10-07T20:41:02.253Z,101488.48
2018-10-07T20:43:30.486Z,101482.76
2018-10-07T20:45:58.718Z,101484.39
2018-10-07T20:48:27.075Z,101485.56
2018-10-07T20:50:57.190Z,101486.00
2018-10-07T20:53:25.716Z,101490.84
2018-10-07T20:55:55.327Z,101494.78
2018-10-07T20:58:23.712Z,101492.60
2018-10-07T21:00:51.949Z,101493.41
2018-10-07T21:03:20.230Z,101483.08
2018-10-07T21:05:48.481Z,101485.28
2018-10-07T21:08:16.728Z,101489.62
2018-10-07T21:10:44.946Z,101491.20
2018-10-07T21:13:13.206Z,101487.86
2018-10-07T21:15:43.421Z,101487.82
2018-10-07T21:18:12.737Z,101492.00
2018-10-07T21:20:41.009Z,101491.58
2018-10-07T21:23:09.318Z,101485.59
2018-10-07T21:25:37.593Z,101488.70
2018-10-07T21:28:06.836Z,101487.45
2018-10-07T21:30:35.113Z,101492.86
2018-10-07T21:33:03.408Z,101490.44
2018-10-07T21:35:31.629Z,101489.16
2018-10-07T21:37:59.816Z,101492.59
2018-10-07T21:40:28.008Z,101486.75
2018-10-07T21:42:56.241Z,101486.23
2018-10-07T21:45:24.494Z,101482.81
2018-10-07T21:47:52.693Z,101481.80
2018-10-07T21:50:21.025Z,101468.13
2018-10-07T21:52:49.250Z,101471.44
2018-10-07T21:55:17.477Z,101474.41
2018-10-07T21:57:45.681Z,101478.44
2018-10-07T22:00:13.937Z,101480.22
2018-10-07T22:02:42.157Z,101487.20
2018-10-07T22:05:10.379Z,101481.20
2018-10-07T22:07:38.593Z,101480.56
2018-10-07T22:10:06.830Z,101475.23
2018-10-07T22:12:35.074Z,101469.00
2018-10-07T22:15:03.302Z,101462.48
2018-10-07T22:17:31.521Z,101464.33
2018-10-07T22:19:59.741Z,101466.15
2018-10-07T22:22:27.965Z,101464.06
2018-10-07T22:24:56.229Z,101472.16
2018-10-07T22:27:24.436Z,101476.12
2018-10-07T22:29:52.640Z,101480.08
2018-10-07T22:32:20.853Z,101494.06
2018-10-07T22:34:49.100Z,101497.05
2018-10-07T22:37:17.319Z,101505.24
2018-10-07T22:39:45.539Z,101508.44
2018-10-07T22:42:13.773Z,101506.39
2018-10-07T22:44:42.046Z,101509.77
2018-10-07T22:47:10.277Z,101509.47
2018-10-07T22:49:38.514Z,101501.22
2018-10-07T22:52:06.874Z,101491.81
2018-10-07T22:54:35.092Z,101500.73
2018-10-07T22:57:03.304Z,101501.22
2018-10-07T22:59:31.525Z,101497.04
2018-10-07T23:01:59.777Z,101504.47
2018-10-07T23:04:28.006Z,101501.67
2018-10-07T23:06:56.238Z,101494.69
2018-10-07T23:09:24.461Z,101504.66
2018-10-07T23:11:52.682Z,101501.84
2018-10-07T23:14:20.910Z,101501.45
2018-10-07T23:16:49.149Z,101503.21
2018-10-07T23:19:17.377Z,101503.28
2018-10-07T23:21:45.602Z,101508.20
2018-10-07T23:24:13.815Z,101503.46
2018-10-07T23:26:42.015Z,101512.27
2018-10-07T23:29:10.277Z,101514.27
2018-10-07T23:31:38.758Z,101505.64
2018-10-07T23:34:07.230Z,101511.39
2018-10-07T23:36:35.508Z,101509.36
2018-10-07T23:39:04.645Z,101506.76
2018-10-07T23:41:32.914Z,101510.27
2018-10-07T23:44:01.144Z,101501.67
2018-10-07T23:46:29.366Z,101508.16
2018-10-07T23:48:57.602Z,101507.60
2018-10-07T23:51:25.903Z,101502.72
2018-10-07T23:53:54.225Z,101502.83
2018-10-07T23:56:22.418Z,101507.07
2018-10-07T23:58:50.710Z,101504.13
